»·PEaware :: N55515 KSNA-KCMA

N55515 :: KSNA-KCMA

FLIGHT INFORMATION

Flight Status: Arrived
Operator: Privately registered:
United States
More flights under this callsign
Pilot: Nehseem A. (13724)
Aircraft: CESSNA 172 SKYHAWK
(C172)
More flights by this aircraft type
Origin: KSNA John Wayne-Orange Co
United States
Destination: KCMA Camarillo
United States
More flights between these airports :: More routes between these airports
Route: +
File this flight plan on PilotEdge
Remarks:
Altitude:
(Current/Filed)
0ft
Speed:
(Current/Filed)
0kts
Departed: 29-Sep-19 04:32 PM
Arrived: 29-Sep-19 05:23 PM
Distance/Time
Traveled:
69nm/0:51
Distance/Time
To Go:
Arrived

Flight Plot

Page will automatically refresh every two minutes.


Map Options




Map Legend


Flown Route
Filed Route
Departure Airport
Arrival Airport
Navaid (VOR, NDB)
Fix

Horizontal Profiles

Position Reports

Time Latitude Longitude Heading Altitude Ground
Speed
29-Sep-19 16:16 33.673297 -117.866487 284 59ft 0kts
29-Sep-19 16:17 33.673297 -117.866487 284 59ft 0kts
29-Sep-19 16:18 33.673297 -117.866487 284 59ft 0kts
29-Sep-19 16:19 33.673297 -117.866487 284 59ft 0kts
29-Sep-19 16:20 33.673297 -117.866487 284 59ft 0kts
29-Sep-19 16:21 33.673574 -117.867053 321 59ft 8kts
29-Sep-19 16:22 33.676234 -117.865742 27 59ft 13kts
29-Sep-19 16:23 33.679225 -117.863838 28 59ft 13kts
29-Sep-19 16:24 33.679726 -117.863477 30 59ft 0kts
29-Sep-19 16:25 33.679726 -117.863477 30 59ft 0kts
29-Sep-19 16:26 33.679786 -117.863441 20 59ft 2kts
29-Sep-19 16:27 33.679975 -117.863659 299 59ft 0kts
29-Sep-19 16:28 33.679975 -117.863659 299 59ft 0kts
29-Sep-19 16:29 33.679975 -117.863659 299 59ft 0kts
29-Sep-19 16:30 33.679980 -117.863670 298 59ft 0kts
29-Sep-19 16:31 33.678190 -117.865379 206 59ft 54kts
29-Sep-19 16:32 33.662548 -117.877462 235 831ft 64kts
29-Sep-19 16:33 33.656348 -117.898685 249 1584ft 68kts
29-Sep-19 16:34 33.650349 -117.919832 248 2318ft 69kts
29-Sep-19 16:35 33.645466 -117.940906 252 3017ft 66kts
29-Sep-19 16:36 33.640590 -117.961411 256 3732ft 66kts
29-Sep-19 16:37 33.642927 -117.983098 289 4446ft 72kts
29-Sep-19 16:38 33.650442 -118.004979 278 5141ft 69kts
29-Sep-19 16:39 33.655159 -118.025264 283 5742ft 70kts
29-Sep-19 16:40 33.665100 -118.045118 295 6346ft 73kts
29-Sep-19 16:41 33.678371 -118.068055 292 6536ft 100kts
29-Sep-19 16:42 33.690547 -118.098748 286 6421ft 106kts
29-Sep-19 16:43 33.700289 -118.129754 283 6436ft 100kts
29-Sep-19 16:44 33.709505 -118.160093 287 6435ft 102kts
29-Sep-19 16:45 33.718950 -118.189741 287 6466ft 100kts
29-Sep-19 16:46 33.736119 -118.214767 306 6508ft 104kts
29-Sep-19 16:47 33.754067 -118.239298 298 6557ft 101kts
29-Sep-19 16:48 33.770533 -118.265671 301 6564ft 103kts
29-Sep-19 16:49 33.789385 -118.290718 309 6529ft 106kts
29-Sep-19 16:50 33.811267 -118.312758 312 6473ft 109kts
29-Sep-19 16:51 33.834282 -118.334398 314 6416ft 108kts
29-Sep-19 16:52 33.856799 -118.354877 314 6403ft 107kts
29-Sep-19 16:53 33.878606 -118.377644 310 6408ft 106kts
29-Sep-19 16:54 33.900565 -118.398836 316 6423ft 107kts
29-Sep-19 16:55 33.921920 -118.421597 307 6444ft 105kts
29-Sep-19 16:56 33.945843 -118.442372 330 6453ft 114kts
29-Sep-19 16:57 33.975423 -118.453198 334 6435ft 117kts
29-Sep-19 16:58 34.004808 -118.467048 331 6441ft 116kts
29-Sep-19 16:59 34.034425 -118.480477 325 6440ft 115kts
29-Sep-19 17:00 34.063227 -118.496438 330 6452ft 116kts
29-Sep-19 17:01 34.093460 -118.508137 335 6501ft 115kts
29-Sep-19 17:02 34.122943 -118.520117 331 6504ft 115kts
29-Sep-19 17:03 34.151985 -118.533573 329 6260ft 112kts
29-Sep-19 17:04 34.166738 -118.560327 269 6032ft 98kts
29-Sep-19 17:05 34.169843 -118.592734 273 5815ft 102kts
29-Sep-19 17:06 34.175404 -118.626176 278 5606ft 103kts
29-Sep-19 17:07 34.181291 -118.658276 272 5395ft 103kts
29-Sep-19 17:08 34.187284 -118.692400 277 5206ft 104kts
29-Sep-19 17:09 34.193822 -118.726416 280 5000ft 104kts
29-Sep-19 17:10 34.200348 -118.760199 275 4573ft 103kts
29-Sep-19 17:11 34.205760 -118.794162 276 4151ft 103kts
29-Sep-19 17:12 34.209986 -118.827859 271 3745ft 102kts
29-Sep-19 17:13 34.210888 -118.861820 267 3359ft 101kts
29-Sep-19 17:14 34.211119 -118.895520 269 3001ft 101kts
29-Sep-19 17:15 34.212212 -118.928916 268 2499ft 93kts
29-Sep-19 17:16 34.212931 -118.957347 269 2084ft 82kts
29-Sep-19 17:17 34.213535 -118.984936 268 1649ft 81kts
29-Sep-19 17:18 34.213379 -119.011461 266 1276ft 76kts
29-Sep-19 17:19 34.213397 -119.036530 266 872ft 73kts
29-Sep-19 17:20 34.213517 -119.060255 266 491ft 67kts
29-Sep-19 17:21 34.213611 -119.079635 267 187ft 58kts
29-Sep-19 17:23 34.212636 -119.090934 186 80ft 5kts

Navigation Log

Ident Type
Flight plan parsing failed, navigation log unavailable